UPS390 KMIA-MROC
Flight info
| Callsign | UPS390 |
|---|---|
| Flight time | N/A |
| Altitude | 31000 |
| Route | MAYNR3 FUNDI UM335 ALVEK UM328 UCL/N0468F330 UM328 SELEK UZ403 PIRAS BARRA4P |
| Aircraft | B752/M-SDE2E3FGHIJ3J4J7RWXY/LB1 |
Departure
| Time | 2026-05-07 15:49 |
|---|---|
| Airport | Miami International Airport (KMIA) |
Arrival
| Time | N/A |
|---|---|
| Airport | Juan Santamaría International Airport (MROC) |
| Time | Latitude | Longitude | Altitude | Speed | Heading |
|---|---|---|---|---|---|
| 2026-05-07 15:30 | 25.79059 | -80.30045 | 13 ft | 0 kts | 84° |
| 2026-05-07 15:34 | 25.79058 | -80.30061 | 13 ft | 2 kts | 84° |
| 2026-05-07 15:34 | 25.79056 | -80.30077 | 13 ft | 2 kts | 84° |
| 2026-05-07 15:35 | 25.79055 | -80.30102 | 13 ft | 3 kts | 97° |
| 2026-05-07 15:35 | 25.79064 | -80.30119 | 13 ft | 1 kts | 164° |
| 2026-05-07 15:35 | 25.79077 | -80.30122 | 13 ft | 1 kts | 181° |
| 2026-05-07 15:35 | 25.79088 | -80.30121 | 13 ft | 0 kts | 180° |
| 2026-05-07 15:36 | 25.79091 | -80.30121 | 13 ft | 0 kts | 178° |
| 2026-05-07 15:38 | 25.79090 | -80.30121 | 13 ft | 1 kts | 177° |
| 2026-05-07 15:38 | 25.79063 | -80.30120 | 13 ft | 7 kts | 178° |
| 2026-05-07 15:38 | 25.78991 | -80.30117 | 13 ft | 11 kts | 179° |
| 2026-05-07 15:39 | 25.78916 | -80.30115 | 13 ft | 9 kts | 181° |
| 2026-05-07 15:39 | 25.78869 | -80.30141 | 13 ft | 6 kts | 235° |
| 2026-05-07 15:39 | 25.78855 | -80.30209 | 13 ft | 12 kts | 269° |
| 2026-05-07 15:39 | 25.78852 | -80.30308 | 13 ft | 12 kts | 268° |
| 2026-05-07 15:40 | 25.78849 | -80.30395 | 13 ft | 10 kts | 268° |
| 2026-05-07 15:40 | 25.78846 | -80.30463 | 13 ft | 7 kts | 268° |
| 2026-05-07 15:40 | 25.78844 | -80.30517 | 13 ft | 6 kts | 268° |
| 2026-05-07 15:40 | 25.78841 | -80.30572 | 13 ft | 7 kts | 268° |
| 2026-05-07 15:41 | 25.78839 | -80.30634 | 13 ft | 8 kts | 268° |
| 2026-05-07 15:41 | 25.78836 | -80.30699 | 13 ft | 8 kts | 268° |
| 2026-05-07 15:41 | 25.78833 | -80.30769 | 13 ft | 9 kts | 267° |
| 2026-05-07 15:41 | 25.78830 | -80.30843 | 13 ft | 9 kts | 267° |
| 2026-05-07 15:42 | 25.78827 | -80.30920 | 13 ft | 10 kts | 267° |
| 2026-05-07 15:42 | 25.78824 | -80.31002 | 13 ft | 10 kts | 268° |
| 2026-05-07 15:42 | 25.78820 | -80.31089 | 13 ft | 11 kts | 267° |
| 2026-05-07 15:42 | 25.78817 | -80.31178 | 13 ft | 11 kts | 267° |
| 2026-05-07 15:43 | 25.78813 | -80.31270 | 13 ft | 12 kts | 267° |
| 2026-05-07 15:43 | 25.78809 | -80.31365 | 13 ft | 12 kts | 267° |
| 2026-05-07 15:43 | 25.78798 | -80.31453 | 13 ft | 8 kts | 241° |
| 2026-05-07 15:43 | 25.78747 | -80.31476 | 13 ft | 8 kts | 180° |
| 2026-05-07 15:44 | 25.78729 | -80.31476 | 13 ft | 0 kts | 179° |
| 2026-05-07 15:46 | 25.78709 | -80.31475 | 13 ft | 4 kts | 179° |
| 2026-05-07 15:47 | 25.78673 | -80.31473 | 13 ft | 5 kts | 178° |
| 2026-05-07 15:47 | 25.78632 | -80.31462 | 13 ft | 6 kts | 146° |
| 2026-05-07 15:47 | 25.78612 | -80.31422 | 13 ft | 6 kts | 97° |
| 2026-05-07 15:47 | 25.78614 | -80.31370 | 13 ft | 6 kts | 86° |
| 2026-05-07 15:48 | 25.78615 | -80.31351 | 13 ft | 1 kts | 87° |
| 2026-05-07 15:48 | 25.78616 | -80.31327 | 13 ft | 5 kts | 87° |
| 2026-05-07 15:48 | 25.78624 | -80.31149 | 13 ft | 49 kts | 88° |
| 2026-05-07 15:48 | 25.78650 | -80.30529 | 13 ft | 111 kts | 87° |
| 2026-05-07 15:49 | 25.78693 | -80.29443 | 15 ft | 167 kts | 88° |
| 2026-05-07 15:49 | 25.78726 | -80.28030 | 194 ft | 198 kts | 90° |
| 2026-05-07 15:49 | 25.78629 | -80.26406 | 477 ft | 226 kts | 109° |
| 2026-05-07 15:49 | 25.77852 | -80.24946 | 632 ft | 216 kts | 131° |
| 2026-05-07 15:50 | 25.76909 | -80.23701 | 847 ft | 209 kts | 129° |
| 2026-05-07 15:50 | 25.76010 | -80.22390 | 1141 ft | 223 kts | 121° |
| 2026-05-07 15:50 | 25.75205 | -80.20809 | 1793 ft | 243 kts | 122° |
| 2026-05-07 15:50 | 25.74131 | -80.19297 | 2523 ft | 260 kts | 143° |
| 2026-05-07 15:51 | 25.72485 | -80.18474 | 3309 ft | 269 kts | 174° |
| 2026-05-07 15:51 | 25.70617 | -80.18548 | 4308 ft | 272 kts | 186° |
| 2026-05-07 15:51 | 25.68752 | -80.18815 | 5198 ft | 277 kts | 196° |
| 2026-05-07 15:51 | 25.66900 | -80.19510 | 6106 ft | 282 kts | 198° |
| 2026-05-07 15:52 | 25.65025 | -80.20161 | 6983 ft | 287 kts | 196° |
| 2026-05-07 15:52 | 25.63112 | -80.20788 | 7795 ft | 292 kts | 195° |
| 2026-05-07 15:52 | 25.61127 | -80.21406 | 8630 ft | 295 kts | 195° |
| 2026-05-07 15:52 | 25.59121 | -80.22017 | 9354 ft | 301 kts | 193° |
| 2026-05-07 15:53 | 25.57105 | -80.22603 | 10103 ft | 305 kts | 194° |
| 2026-05-07 15:53 | 25.55004 | -80.23229 | 10609 ft | 319 kts | 194° |
| 2026-05-07 15:53 | 25.52799 | -80.23894 | 10906 ft | 339 kts | 194° |
| 2026-05-07 15:53 | 25.50444 | -80.24607 | 11214 ft | 358 kts | 195° |
| 2026-05-07 15:54 | 25.47960 | -80.25334 | 11576 ft | 374 kts | 194° |
| 2026-05-07 15:54 | 25.45409 | -80.26075 | 12331 ft | 377 kts | 194° |
| 2026-05-07 15:54 | 25.42851 | -80.26836 | 13010 ft | 382 kts | 195° |
| 2026-05-07 15:54 | 25.40258 | -80.27614 | 13721 ft | 386 kts | 195° |
| 2026-05-07 15:55 | 25.37679 | -80.28393 | 14357 ft | 391 kts | 195° |
| 2026-05-07 15:55 | 25.35027 | -80.29196 | 14974 ft | 396 kts | 195° |
| 2026-05-07 15:55 | 25.32355 | -80.30006 | 15582 ft | 400 kts | 196° |
| 2026-05-07 15:55 | 25.29631 | -80.30833 | 16171 ft | 405 kts | 196° |
| 2026-05-07 15:56 | 25.26901 | -80.31660 | 16763 ft | 409 kts | 197° |
| 2026-05-07 15:56 | 25.24157 | -80.32494 | 17308 ft | 413 kts | 197° |
| 2026-05-07 15:56 | 25.21344 | -80.33347 | 17876 ft | 417 kts | 197° |
| 2026-05-07 15:56 | 25.18543 | -80.34196 | 18479 ft | 419 kts | 197° |
| 2026-05-07 15:57 | 25.15692 | -80.35059 | 19047 ft | 421 kts | 197° |
| 2026-05-07 15:57 | 25.12837 | -80.35924 | 19621 ft | 423 kts | 197° |
| 2026-05-07 15:57 | 25.09982 | -80.36788 | 20143 ft | 426 kts | 198° |
| 2026-05-07 15:57 | 25.07108 | -80.37658 | 20661 ft | 428 kts | 198° |
| 2026-05-07 15:58 | 25.04233 | -80.38527 | 21172 ft | 431 kts | 198° |
| 2026-05-07 15:58 | 25.01317 | -80.39408 | 21671 ft | 433 kts | 198° |
| 2026-05-07 15:58 | 24.98363 | -80.40301 | 22178 ft | 435 kts | 198° |
| 2026-05-07 15:58 | 24.95415 | -80.41191 | 22633 ft | 438 kts | 198° |
| 2026-05-07 15:59 | 24.92470 | -80.42081 | 23082 ft | 441 kts | 198° |
| 2026-05-07 15:59 | 24.89484 | -80.42982 | 23503 ft | 444 kts | 198° |
| 2026-05-07 15:59 | 24.86497 | -80.43882 | 23959 ft | 446 kts | 198° |
| 2026-05-07 15:59 | 24.83496 | -80.44786 | 24376 ft | 449 kts | 198° |
| 2026-05-07 16:00 | 24.80487 | -80.45692 | 24782 ft | 451 kts | 198° |
| 2026-05-07 16:00 | 24.77418 | -80.46617 | 25194 ft | 454 kts | 198° |
| 2026-05-07 16:00 | 24.74360 | -80.47536 | 25598 ft | 456 kts | 198° |
| 2026-05-07 16:00 | 24.71303 | -80.48456 | 25997 ft | 458 kts | 198° |
| 2026-05-07 16:01 | 24.68204 | -80.49387 | 26374 ft | 461 kts | 198° |
| 2026-05-07 16:01 | 24.65105 | -80.50319 | 26744 ft | 464 kts | 198° |
| 2026-05-07 16:01 | 24.61965 | -80.51261 | 27128 ft | 466 kts | 198° |
| 2026-05-07 16:01 | 24.58831 | -80.52202 | 27461 ft | 469 kts | 198° |
| 2026-05-07 16:02 | 24.55649 | -80.53156 | 27825 ft | 471 kts | 198° |
| 2026-05-07 16:02 | 24.52458 | -80.54113 | 28148 ft | 473 kts | 198° |
| 2026-05-07 16:02 | 24.49305 | -80.55058 | 28487 ft | 475 kts | 198° |
| 2026-05-07 16:02 | 24.46096 | -80.56019 | 28806 ft | 478 kts | 198° |
| 2026-05-07 16:03 | 24.42860 | -80.56988 | 29095 ft | 480 kts | 198° |
| 2026-05-07 16:03 | 24.39621 | -80.57957 | 29367 ft | 483 kts | 198° |
| 2026-05-07 16:03 | 24.36375 | -80.58927 | 29672 ft | 484 kts | 198° |
| 2026-05-07 16:03 | 24.33113 | -80.59902 | 29939 ft | 486 kts | 198° |
| 2026-05-07 16:04 | 24.29800 | -80.60891 | 30222 ft | 488 kts | 198° |
| 2026-05-07 16:04 | 24.26519 | -80.61871 | 30474 ft | 490 kts | 198° |
| 2026-05-07 16:04 | 24.23247 | -80.62846 | 30789 ft | 489 kts | 198° |
| 2026-05-07 16:04 | 24.19935 | -80.63834 | 30950 ft | 489 kts | 199° |
| 2026-05-07 16:05 | 24.16653 | -80.64812 | 30944 ft | 488 kts | 199° |
| 2026-05-07 16:05 | 24.10101 | -80.66763 | 30952 ft | 486 kts | 198° |
| 2026-05-07 16:06 | 24.03573 | -80.68707 | 30952 ft | 487 kts | 198° |
| 2026-05-07 16:06 | 23.96973 | -80.70668 | 30952 ft | 486 kts | 198° |
| 2026-05-07 16:07 | 23.90431 | -80.72610 | 30952 ft | 486 kts | 198° |
| 2026-05-07 16:07 | 23.83893 | -80.74549 | 30946 ft | 486 kts | 198° |
| 2026-05-07 16:08 | 23.77394 | -80.76475 | 30945 ft | 486 kts | 198° |
| 2026-05-07 16:08 | 23.70810 | -80.78423 | 30944 ft | 487 kts | 198° |
| 2026-05-07 16:09 | 23.64288 | -80.80352 | 30944 ft | 487 kts | 198° |
| 2026-05-07 16:09 | 23.57703 | -80.82297 | 30941 ft | 487 kts | 198° |
| 2026-05-07 16:10 | 23.51143 | -80.84232 | 30937 ft | 487 kts | 198° |
| 2026-05-07 16:10 | 23.44601 | -80.86160 | 30939 ft | 488 kts | 198° |
| 2026-05-07 16:11 | 23.38029 | -80.88095 | 30937 ft | 487 kts | 198° |
| 2026-05-07 16:11 | 23.31452 | -80.90030 | 30934 ft | 488 kts | 198° |
| 2026-05-07 16:12 | 23.24911 | -80.91952 | 30934 ft | 488 kts | 197° |
| 2026-05-07 16:12 | 23.18312 | -80.93889 | 30934 ft | 488 kts | 197° |
| 2026-05-07 16:13 | 23.11751 | -80.95812 | 30932 ft | 488 kts | 197° |
| 2026-05-07 16:13 | 23.04992 | -80.96848 | 30939 ft | 491 kts | 189° |
| 2026-05-07 16:14 | 22.98352 | -80.98640 | 30934 ft | 488 kts | 200° |
| 2026-05-07 16:14 | 22.91941 | -81.00978 | 30931 ft | 486 kts | 201° |
| 2026-05-07 16:15 | 22.85530 | -81.03441 | 30930 ft | 486 kts | 202° |
| 2026-05-07 16:15 | 22.79108 | -81.05970 | 30931 ft | 487 kts | 202° |
| 2026-05-07 16:16 | 22.72732 | -81.08504 | 30933 ft | 488 kts | 202° |
| 2026-05-07 16:16 | 22.66315 | -81.11062 | 30931 ft | 488 kts | 202° |
| 2026-05-07 16:17 | 22.59949 | -81.13601 | 30929 ft | 487 kts | 202° |
| 2026-05-07 16:17 | 22.53536 | -81.16157 | 30928 ft | 487 kts | 202° |
| 2026-05-07 16:18 | 22.47146 | -81.18702 | 30928 ft | 487 kts | 202° |
| 2026-05-07 16:18 | 22.40759 | -81.21235 | 30928 ft | 488 kts | 201° |
| 2026-05-07 16:19 | 22.34361 | -81.23737 | 30930 ft | 488 kts | 203° |
| 2026-05-07 16:19 | 22.27984 | -81.26359 | 30928 ft | 489 kts | 202° |
| 2026-05-07 16:20 | 22.21607 | -81.28923 | 30928 ft | 488 kts | 202° |
| 2026-05-07 16:20 | 22.15212 | -81.31448 | 30930 ft | 489 kts | 201° |
| 2026-05-07 16:21 | 22.08814 | -81.33942 | 30929 ft | 489 kts | 202° |
| 2026-05-07 16:21 | 22.02421 | -81.36456 | 30929 ft | 488 kts | 202° |
| 2026-05-07 16:22 | 21.96033 | -81.38976 | 30929 ft | 488 kts | 202° |
| 2026-05-07 16:22 | 21.89673 | -81.41486 | 30930 ft | 489 kts | 202° |
| 2026-05-07 16:23 | 21.83279 | -81.44007 | 30926 ft | 489 kts | 202° |
| 2026-05-07 16:23 | 21.76864 | -81.46536 | 30926 ft | 490 kts | 202° |
| 2026-05-07 16:24 | 21.70476 | -81.49051 | 30926 ft | 489 kts | 202° |
| 2026-05-07 16:24 | 21.64054 | -81.51577 | 30926 ft | 490 kts | 202° |
| 2026-05-07 16:25 | 21.57911 | -81.54588 | 30936 ft | 487 kts | 211° |
| 2026-05-07 16:25 | 21.51938 | -81.58095 | 30927 ft | 488 kts | 210° |
| 2026-05-07 16:26 | 21.45985 | -81.61585 | 30927 ft | 487 kts | 211° |
| 2026-05-07 16:26 | 21.40036 | -81.65084 | 30927 ft | 487 kts | 210° |
| 2026-05-07 16:27 | 21.34100 | -81.68578 | 30929 ft | 488 kts | 210° |
| 2026-05-07 16:27 | 21.28131 | -81.72089 | 30928 ft | 487 kts | 210° |
| 2026-05-07 16:28 | 21.22188 | -81.75584 | 30930 ft | 489 kts | 210° |
| 2026-05-07 16:28 | 21.16214 | -81.79092 | 30928 ft | 488 kts | 210° |
| 2026-05-07 16:29 | 21.10269 | -81.82581 | 30929 ft | 488 kts | 210° |
| 2026-05-07 16:29 | 21.04280 | -81.86092 | 30929 ft | 489 kts | 210° |
| 2026-05-07 16:30 | 20.98312 | -81.89588 | 30929 ft | 488 kts | 210° |
| 2026-05-07 16:30 | 20.92391 | -81.93054 | 30929 ft | 488 kts | 210° |
| 2026-05-07 16:31 | 20.86402 | -81.96556 | 30927 ft | 488 kts | 210° |
| 2026-05-07 16:31 | 20.80439 | -82.00039 | 30926 ft | 488 kts | 210° |
| 2026-05-07 16:32 | 20.74469 | -82.03524 | 30926 ft | 488 kts | 210° |
| 2026-05-07 16:32 | 20.68494 | -82.07008 | 30926 ft | 489 kts | 210° |
| 2026-05-07 16:33 | 20.62553 | -82.10469 | 30926 ft | 488 kts | 210° |
| 2026-05-07 16:33 | 20.56562 | -82.13957 | 30927 ft | 489 kts | 210° |
| 2026-05-07 16:34 | 20.50574 | -82.17439 | 30927 ft | 489 kts | 210° |
| 2026-05-07 16:34 | 20.44610 | -82.20905 | 30928 ft | 489 kts | 210° |
| 2026-05-07 16:35 | 20.38660 | -82.24358 | 30928 ft | 489 kts | 210° |
| 2026-05-07 16:35 | 20.32692 | -82.27819 | 30927 ft | 488 kts | 210° |
| 2026-05-07 16:36 | 20.26704 | -82.31289 | 30929 ft | 488 kts | 210° |
| 2026-05-07 16:36 | 20.20738 | -82.34744 | 30930 ft | 489 kts | 210° |
| 2026-05-07 16:37 | 20.14750 | -82.38207 | 30929 ft | 489 kts | 210° |
| 2026-05-07 16:37 | 20.08555 | -82.41213 | 30942 ft | 490 kts | 197° |
| 2026-05-07 16:38 | 20.01901 | -82.42885 | 30928 ft | 491 kts | 194° |
| 2026-05-07 16:38 | 19.95239 | -82.44443 | 30927 ft | 490 kts | 193° |
| 2026-05-07 16:39 | 19.88547 | -82.45967 | 30926 ft | 490 kts | 193° |
| 2026-05-07 16:39 | 19.81886 | -82.47481 | 30924 ft | 491 kts | 193° |
| 2026-05-07 16:40 | 19.75188 | -82.49000 | 30921 ft | 491 kts | 193° |
| 2026-05-07 16:40 | 19.68470 | -82.50523 | 30918 ft | 492 kts | 193° |
| 2026-05-07 16:41 | 19.61785 | -82.52035 | 30916 ft | 492 kts | 193° |
| 2026-05-07 16:41 | 19.55078 | -82.53552 | 30915 ft | 491 kts | 193° |
| 2026-05-07 16:42 | 19.48389 | -82.55064 | 30917 ft | 490 kts | 192° |
| 2026-05-07 16:42 | 19.41708 | -82.56515 | 30917 ft | 491 kts | 191° |
| 2026-05-07 16:43 | 19.34984 | -82.57878 | 30916 ft | 492 kts | 192° |
| 2026-05-07 16:43 | 19.28252 | -82.59338 | 30915 ft | 492 kts | 192° |
| 2026-05-07 16:44 | 19.21551 | -82.60825 | 30910 ft | 492 kts | 192° |
| 2026-05-07 16:44 | 19.14805 | -82.62335 | 30908 ft | 491 kts | 192° |
| 2026-05-07 16:45 | 19.08145 | -82.63829 | 30908 ft | 491 kts | 192° |
| 2026-05-07 16:45 | 19.01454 | -82.65331 | 30911 ft | 492 kts | 192° |
| 2026-05-07 16:46 | 18.94743 | -82.66837 | 30908 ft | 492 kts | 192° |
| 2026-05-07 16:46 | 18.88044 | -82.68339 | 30905 ft | 491 kts | 192° |
| 2026-05-07 16:47 | 18.81374 | -82.69834 | 30905 ft | 491 kts | 192° |
| 2026-05-07 16:47 | 18.74651 | -82.71339 | 30905 ft | 490 kts | 192° |
| 2026-05-07 16:48 | 18.67981 | -82.72831 | 30906 ft | 491 kts | 192° |
| 2026-05-07 16:48 | 18.61281 | -82.74329 | 30906 ft | 491 kts | 192° |
| 2026-05-07 16:49 | 18.54573 | -82.75827 | 30906 ft | 490 kts | 192° |
| 2026-05-07 16:49 | 18.47887 | -82.77319 | 30907 ft | 491 kts | 192° |
| 2026-05-07 16:50 | 18.41181 | -82.78815 | 30906 ft | 491 kts | 192° |
| 2026-05-07 16:50 | 18.34499 | -82.80303 | 30908 ft | 491 kts | 192° |
| 2026-05-07 16:51 | 18.27808 | -82.81793 | 30908 ft | 492 kts | 192° |
| 2026-05-07 16:51 | 18.21082 | -82.83288 | 30908 ft | 491 kts | 192° |
| 2026-05-07 16:52 | 18.14378 | -82.84776 | 30908 ft | 491 kts | 192° |
| 2026-05-07 16:52 | 18.07710 | -82.86255 | 30908 ft | 491 kts | 192° |
| 2026-05-07 16:53 | 18.00987 | -82.87745 | 30909 ft | 490 kts | 191° |
| 2026-05-07 16:53 | 17.94295 | -82.89226 | 30907 ft | 491 kts | 191° |
| 2026-05-07 16:54 | 17.87630 | -82.90700 | 30903 ft | 491 kts | 191° |
| 2026-05-07 16:54 | 17.80878 | -82.92192 | 30903 ft | 491 kts | 191° |
| 2026-05-07 16:55 | 17.74166 | -82.93675 | 30902 ft | 491 kts | 191° |
| 2026-05-07 16:55 | 17.67476 | -82.95152 | 30899 ft | 491 kts | 191° |
| 2026-05-07 16:56 | 17.60794 | -82.96625 | 30898 ft | 489 kts | 191° |
| 2026-05-07 16:56 | 17.50791 | -82.98829 | 30897 ft | 491 kts | 191° |
| 2026-05-07 16:57 | 17.44072 | -83.00307 | 30896 ft | 490 kts | 191° |
| 2026-05-07 16:57 | 17.37384 | -83.01778 | 30895 ft | 491 kts | 191° |
| 2026-05-07 16:58 | 17.30690 | -83.03249 | 30895 ft | 490 kts | 191° |
| 2026-05-07 16:58 | 17.24038 | -83.04710 | 30889 ft | 490 kts | 191° |
| 2026-05-07 16:59 | 17.17324 | -83.06184 | 30893 ft | 490 kts | 191° |
| 2026-05-07 16:59 | 17.10643 | -83.07649 | 30891 ft | 489 kts | 191° |
| 2026-05-07 17:00 | 17.03948 | -83.09116 | 30887 ft | 489 kts | 191° |
| 2026-05-07 17:00 | 16.97299 | -83.10571 | 30889 ft | 490 kts | 191° |
| 2026-05-07 17:01 | 16.90585 | -83.12041 | 30888 ft | 491 kts | 191° |
| 2026-05-07 17:01 | 16.83900 | -83.13502 | 30886 ft | 490 kts | 191° |
| 2026-05-07 17:02 | 16.77180 | -83.14971 | 30887 ft | 490 kts | 191° |
| 2026-05-07 17:02 | 16.70525 | -83.16424 | 30887 ft | 490 kts | 191° |
| 2026-05-07 17:03 | 16.63828 | -83.17885 | 30886 ft | 489 kts | 191° |
| 2026-05-07 17:03 | 16.57168 | -83.19337 | 30886 ft | 490 kts | 191° |
| 2026-05-07 17:04 | 16.50456 | -83.20799 | 30886 ft | 491 kts | 191° |
| 2026-05-07 17:04 | 16.43777 | -83.22253 | 30884 ft | 490 kts | 191° |
| 2026-05-07 17:05 | 16.37096 | -83.23707 | 30882 ft | 489 kts | 191° |
| 2026-05-07 17:05 | 16.30420 | -83.25158 | 30884 ft | 490 kts | 191° |
| 2026-05-07 17:06 | 16.23697 | -83.26618 | 30883 ft | 490 kts | 191° |
| 2026-05-07 17:06 | 16.17013 | -83.28069 | 30885 ft | 490 kts | 191° |
| 2026-05-07 17:07 | 16.10328 | -83.29520 | 30884 ft | 490 kts | 191° |
| 2026-05-07 17:07 | 16.03654 | -83.30955 | 30880 ft | 490 kts | 190° |
| 2026-05-07 17:08 | 15.96928 | -83.32369 | 30881 ft | 490 kts | 190° |
| 2026-05-07 17:08 | 15.90241 | -83.33777 | 30878 ft | 490 kts | 190° |
| 2026-05-07 17:09 | 15.83561 | -83.35181 | 30880 ft | 491 kts | 190° |
| 2026-05-07 17:09 | 15.76866 | -83.36588 | 30875 ft | 490 kts | 190° |
| 2026-05-07 17:10 | 15.70149 | -83.37999 | 30879 ft | 491 kts | 190° |
| 2026-05-07 17:10 | 15.63461 | -83.39403 | 30876 ft | 490 kts | 190° |
| 2026-05-07 17:11 | 15.56756 | -83.40809 | 30875 ft | 490 kts | 190° |
| 2026-05-07 17:11 | 15.50078 | -83.42208 | 30872 ft | 490 kts | 190° |
| 2026-05-07 17:12 | 15.43350 | -83.43618 | 30874 ft | 490 kts | 190° |
| 2026-05-07 17:12 | 15.36678 | -83.45014 | 30874 ft | 490 kts | 190° |
| 2026-05-07 17:13 | 15.29954 | -83.46420 | 30872 ft | 490 kts | 190° |
| 2026-05-07 17:13 | 15.23244 | -83.47823 | 30869 ft | 491 kts | 190° |
| 2026-05-07 17:14 | 15.16532 | -83.49226 | 30869 ft | 491 kts | 190° |
| 2026-05-07 17:14 | 15.09823 | -83.50626 | 30863 ft | 490 kts | 190° |
| 2026-05-07 17:15 | 15.03128 | -83.52023 | 30864 ft | 490 kts | 190° |
| 2026-05-07 17:15 | 14.96450 | -83.53416 | 30865 ft | 491 kts | 190° |
| 2026-05-07 17:16 | 14.89755 | -83.54810 | 30861 ft | 491 kts | 190° |
| 2026-05-07 17:16 | 14.83031 | -83.56211 | 30859 ft | 490 kts | 190° |
| 2026-05-07 17:17 | 14.76349 | -83.57601 | 30863 ft | 491 kts | 189° |
| 2026-05-07 17:17 | 14.69626 | -83.58999 | 30866 ft | 491 kts | 190° |
| 2026-05-07 17:18 | 14.62933 | -83.60420 | 30861 ft | 490 kts | 191° |
| 2026-05-07 17:18 | 14.56259 | -83.61880 | 30861 ft | 490 kts | 190° |
| 2026-05-07 17:19 | 14.49546 | -83.63302 | 30863 ft | 490 kts | 189° |
| 2026-05-07 17:19 | 14.42883 | -83.64697 | 30860 ft | 490 kts | 189° |
| 2026-05-07 17:20 | 14.36165 | -83.66097 | 30856 ft | 489 kts | 189° |
| 2026-05-07 17:20 | 14.29454 | -83.67491 | 30849 ft | 490 kts | 189° |
| 2026-05-07 17:21 | 14.22732 | -83.68886 | 30845 ft | 490 kts | 189° |
| 2026-05-07 17:21 | 14.16037 | -83.70274 | 30844 ft | 489 kts | 189° |
| 2026-05-07 17:22 | 14.09327 | -83.71664 | 30850 ft | 489 kts | 189° |
| 2026-05-07 17:22 | 14.02620 | -83.73054 | 30858 ft | 489 kts | 189° |
| 2026-05-07 17:23 | 13.95918 | -83.74441 | 30852 ft | 489 kts | 189° |
| 2026-05-07 17:23 | 13.89245 | -83.75822 | 30854 ft | 490 kts | 189° |
| 2026-05-07 17:24 | 13.82531 | -83.77209 | 30844 ft | 489 kts | 189° |
| 2026-05-07 17:24 | 13.75854 | -83.78588 | 30841 ft | 490 kts | 189° |
| 2026-05-07 17:25 | 13.69103 | -83.79982 | 30836 ft | 490 kts | 189° |
| 2026-05-07 17:25 | 13.62445 | -83.81357 | 30833 ft | 490 kts | 188° |
| 2026-05-07 17:26 | 13.55743 | -83.82739 | 30830 ft | 490 kts | 188° |
| 2026-05-07 17:26 | 13.49021 | -83.84125 | 30829 ft | 489 kts | 188° |
| 2026-05-07 17:27 | 13.42320 | -83.85505 | 30832 ft | 490 kts | 188° |
| 2026-05-07 17:27 | 13.35651 | -83.86878 | 30831 ft | 489 kts | 188° |
| 2026-05-07 17:28 | 13.28970 | -83.88252 | 30828 ft | 489 kts | 188° |
| 2026-05-07 17:28 | 13.22255 | -83.89633 | 30831 ft | 490 kts | 188° |
| 2026-05-07 17:29 | 13.15547 | -83.91012 | 30830 ft | 490 kts | 188° |
| 2026-05-07 17:29 | 13.08810 | -83.92396 | 30831 ft | 488 kts | 188° |
| 2026-05-07 17:30 | 13.02151 | -83.93763 | 30837 ft | 488 kts | 188° |
| 2026-05-07 17:30 | 12.95418 | -83.95145 | 30835 ft | 489 kts | 188° |
| 2026-05-07 17:31 | 12.88717 | -83.96519 | 30832 ft | 488 kts | 188° |
| 2026-05-07 17:31 | 12.82046 | -83.97886 | 30832 ft | 490 kts | 188° |
| 2026-05-07 17:32 | 12.75330 | -83.99262 | 30832 ft | 489 kts | 188° |
| 2026-05-07 17:32 | 12.69764 | -84.00402 | 30832 ft | 489 kts | 188° |
| 2026-05-07 17:33 | 12.61898 | -84.02012 | 30835 ft | 488 kts | 188° |
| 2026-05-07 17:33 | 12.55249 | -84.03372 | 30834 ft | 488 kts | 188° |
| 2026-05-07 17:34 | 12.48534 | -84.04744 | 30838 ft | 488 kts | 188° |
| 2026-05-07 17:34 | 12.41845 | -84.06111 | 30836 ft | 489 kts | 188° |
| 2026-05-07 17:35 | 12.35137 | -84.07481 | 30835 ft | 488 kts | 188° |
| 2026-05-07 17:35 | 12.28486 | -84.08838 | 30836 ft | 489 kts | 188° |
| 2026-05-07 17:36 | 12.21787 | -84.10205 | 30839 ft | 488 kts | 188° |
| 2026-05-07 17:36 | 12.15122 | -84.11564 | 30837 ft | 488 kts | 188° |
| 2026-05-07 17:37 | 12.08435 | -84.12927 | 30835 ft | 487 kts | 188° |
| 2026-05-07 17:37 | 12.01763 | -84.14285 | 30838 ft | 489 kts | 188° |
| 2026-05-07 17:38 | 11.95083 | -84.15645 | 30840 ft | 487 kts | 188° |
| 2026-05-07 17:38 | 11.88441 | -84.16996 | 30855 ft | 488 kts | 188° |
| 2026-05-07 17:39 | 11.81711 | -84.18365 | 30866 ft | 489 kts | 188° |
| 2026-05-07 17:39 | 11.75033 | -84.19723 | 30867 ft | 488 kts | 188° |
| 2026-05-07 17:40 | 11.68356 | -84.21079 | 30867 ft | 488 kts | 188° |
| 2026-05-07 17:40 | 11.61667 | -84.22437 | 30866 ft | 490 kts | 188° |
| 2026-05-07 17:41 | 11.54925 | -84.23806 | 30862 ft | 489 kts | 188° |
| 2026-05-07 17:41 | 11.48250 | -84.25161 | 30862 ft | 488 kts | 188° |
| 2026-05-07 17:42 | 11.41545 | -84.26520 | 30870 ft | 489 kts | 188° |
| 2026-05-07 17:42 | 11.34871 | -84.27872 | 30885 ft | 487 kts | 188° |
| 2026-05-07 17:43 | 11.31566 | -84.28544 | 30796 ft | 473 kts | 188° |
| 2026-05-07 17:43 | 11.28349 | -84.29196 | 30138 ft | 468 kts | 188° |
| 2026-05-07 17:43 | 11.25164 | -84.29842 | 29531 ft | 463 kts | 188° |
| 2026-05-07 17:43 | 11.21989 | -84.30484 | 28944 ft | 461 kts | 188° |
| 2026-05-07 17:44 | 11.18861 | -84.31117 | 28382 ft | 459 kts | 188° |
| 2026-05-07 17:44 | 11.15732 | -84.31750 | 27834 ft | 457 kts | 188° |
| 2026-05-07 17:44 | 11.12613 | -84.32383 | 27293 ft | 453 kts | 188° |
| 2026-05-07 17:44 | 11.09490 | -84.33015 | 26756 ft | 450 kts | 187° |
| 2026-05-07 17:45 | 11.06432 | -84.33633 | 26237 ft | 446 kts | 187° |
| 2026-05-07 17:45 | 11.03396 | -84.34248 | 25723 ft | 442 kts | 187° |
| 2026-05-07 17:45 | 11.00393 | -84.34855 | 25216 ft | 439 kts | 187° |
| 2026-05-07 17:45 | 10.97427 | -84.35453 | 24717 ft | 437 kts | 187° |
| 2026-05-07 17:46 | 10.94444 | -84.36056 | 24217 ft | 433 kts | 187° |
| 2026-05-07 17:46 | 10.91455 | -84.36671 | 23716 ft | 431 kts | 189° |
| 2026-05-07 17:46 | 10.88580 | -84.37531 | 23239 ft | 430 kts | 194° |
| 2026-05-07 17:46 | 10.85733 | -84.38471 | 22776 ft | 427 kts | 193° |
| 2026-05-07 17:47 | 10.82918 | -84.39397 | 22313 ft | 425 kts | 193° |
| 2026-05-07 17:47 | 10.80107 | -84.40327 | 21859 ft | 423 kts | 193° |
| 2026-05-07 17:47 | 10.77300 | -84.41257 | 21384 ft | 419 kts | 194° |
| 2026-05-07 17:47 | 10.74545 | -84.42172 | 20913 ft | 415 kts | 194° |
| 2026-05-07 17:48 | 10.71803 | -84.43082 | 20422 ft | 411 kts | 194° |
| 2026-05-07 17:48 | 10.69110 | -84.43978 | 20004 ft | 405 kts | 194° |
| 2026-05-07 17:48 | 10.66455 | -84.44861 | 19616 ft | 403 kts | 194° |
| 2026-05-07 17:48 | 10.63762 | -84.45755 | 19214 ft | 403 kts | 194° |
| 2026-05-07 17:49 | 10.61117 | -84.46635 | 18796 ft | 401 kts | 194° |
| 2026-05-07 17:49 | 10.58465 | -84.47517 | 18349 ft | 397 kts | 195° |
| 2026-05-07 17:49 | 10.55830 | -84.48393 | 17930 ft | 391 kts | 195° |
| 2026-05-07 17:49 | 10.53246 | -84.49252 | 17543 ft | 387 kts | 195° |
| 2026-05-07 17:50 | 10.50699 | -84.50098 | 17172 ft | 386 kts | 194° |
| 2026-05-07 17:50 | 10.48144 | -84.50946 | 16690 ft | 388 kts | 195° |
| 2026-05-07 17:50 | 10.45569 | -84.51803 | 16243 ft | 379 kts | 195° |
| 2026-05-07 17:50 | 10.43114 | -84.52619 | 15902 ft | 364 kts | 195° |
| 2026-05-07 17:51 | 10.40734 | -84.53410 | 15584 ft | 358 kts | 195° |
| 2026-05-07 17:51 | 10.38324 | -84.54207 | 15246 ft | 363 kts | 195° |
| 2026-05-07 17:51 | 10.35915 | -84.55004 | 14868 ft | 366 kts | 195° |
| 2026-05-07 17:51 | 10.33518 | -84.55799 | 14535 ft | 361 kts | 195° |
| 2026-05-07 17:52 | 10.31130 | -84.56591 | 14039 ft | 359 kts | 195° |
| 2026-05-07 17:52 | 10.28776 | -84.57373 | 13843 ft | 352 kts | 196° |
| 2026-05-07 17:52 | 10.26404 | -84.58158 | 13292 ft | 359 kts | 196° |
| 2026-05-07 17:52 | 10.24044 | -84.58942 | 12717 ft | 355 kts | 195° |
| 2026-05-07 17:53 | 10.21724 | -84.59712 | 12140 ft | 349 kts | 196° |
| 2026-05-07 17:53 | 10.19447 | -84.60468 | 11956 ft | 336 kts | 195° |
| 2026-05-07 17:53 | 10.17243 | -84.61083 | 11931 ft | 316 kts | 184° |
| 2026-05-07 17:53 | 10.15134 | -84.61040 | 11926 ft | 290 kts | 163° |
| 2026-05-07 17:54 | 10.13241 | -84.60353 | 11672 ft | 298 kts | 153° |
| 2026-05-07 17:54 | 10.11346 | -84.59405 | 11304 ft | 303 kts | 151° |
| 2026-05-07 17:54 | 10.09494 | -84.58415 | 10932 ft | 298 kts | 149° |
| 2026-05-07 17:54 | 10.07683 | -84.57415 | 10598 ft | 294 kts | 153° |
| 2026-05-07 17:55 | 10.05813 | -84.56602 | 10237 ft | 293 kts | 153° |
| 2026-05-07 17:55 | 10.03989 | -84.55688 | 9988 ft | 284 kts | 150° |
| 2026-05-07 17:55 | 10.02284 | -84.54766 | 9986 ft | 269 kts | 149° |
| 2026-05-07 17:55 | 10.00674 | -84.53861 | 9957 ft | 254 kts | 148° |
| 2026-05-07 17:56 | 9.99203 | -84.53008 | 9956 ft | 237 kts | 147° |
| 2026-05-07 17:56 | 9.97767 | -84.52159 | 9898 ft | 243 kts | 147° |
| 2026-05-07 17:56 | 9.96261 | -84.51257 | 9575 ft | 254 kts | 147° |
| 2026-05-07 17:56 | 9.94763 | -84.50359 | 9366 ft | 243 kts | 147° |
| 2026-05-07 17:57 | 9.93309 | -84.49481 | 8873 ft | 245 kts | 148° |
| 2026-05-07 17:57 | 9.92338 | -84.48896 | 8594 ft | 245 kts | 147° |
| 2026-05-07 17:57 | 9.90813 | -84.47345 | 8325 ft | 226 kts | 110° |
| 2026-05-07 17:57 | 9.90605 | -84.45757 | 7973 ft | 236 kts | 80° |
| 2026-05-07 17:58 | 9.90998 | -84.44129 | 7634 ft | 237 kts | 75° |
| 2026-05-07 17:58 | 9.91446 | -84.42575 | 7605 ft | 222 kts | 73° |
| 2026-05-07 17:58 | 9.91914 | -84.41097 | 7368 ft | 219 kts | 72° |
| 2026-05-07 17:58 | 9.92402 | -84.39651 | 6869 ft | 221 kts | 70° |
| 2026-05-07 17:59 | 9.92921 | -84.38174 | 6397 ft | 220 kts | 70° |
| 2026-05-07 17:59 | 9.93447 | -84.36722 | 5934 ft | 220 kts | 69° |
| 2026-05-07 17:59 | 9.93975 | -84.35291 | 5529 ft | 216 kts | 70° |
| 2026-05-07 17:59 | 9.94501 | -84.33877 | 5071 ft | 211 kts | 69° |
| 2026-05-07 18:00 | 9.95003 | -84.32529 | 4735 ft | 202 kts | 69° |
| 2026-05-07 18:00 | 9.95476 | -84.31274 | 4734 ft | 176 kts | 69° |
| 2026-05-07 18:00 | 9.95893 | -84.30164 | 4483 ft | 163 kts | 69° |
| 2026-05-07 18:00 | 9.96188 | -84.29385 | 4347 ft | 163 kts | 70° |
| 2026-05-07 18:01 | 9.96446 | -84.28700 | 4233 ft | 167 kts | 71° |